Time;durP1;ratioP1;P1;durP2;ratioP2;P2;SDS_P1;SDS_P2;PMS_P1;PMS_P2;Temp;Humidity;BMP_temperature;BMP_pressure;BME280_temperature;BME280_humidity;BME280_pressure;Samples;Min_cycle;Max_cycle;Signal;HPM_P1;HPM_P2
2023/11/16 00:01:38;;;;;;;11.30;8.60;;;;;;;3.55;84.91;99840.52;103947;1254;138511;-72
2023/11/16 00:04:06;;;;;;;9.80;7.50;;;;;;;3.50;85.21;99841.10;103094;1256;1002510;-72
2023/11/16 00:06:34;;;;;;;13.30;8.20;;;;;;;3.47;85.34;99846.30;104319;1256;95174;-72
2023/11/16 00:09:01;;;;;;;10.90;7.70;;;;;;;3.43;85.17;99849.60;104322;1256;107394;-71
2023/11/16 00:11:29;;;;;;;10.60;7.90;;;;;;;3.46;85.47;99856.45;103468;1256;96491;-73
2023/11/16 00:13:57;;;;;;;12.40;8.40;;;;;;;3.48;85.52;99862.44;103490;1257;137296;-72
2023/11/16 00:16:25;;;;;;;12.00;8.70;;;;;;;3.49;85.58;99871.89;103649;1256;108118;-71
2023/11/16 00:18:53;;;;;;;12.90;9.50;;;;;;;3.47;85.35;99879.30;104111;1256;137669;-73
2023/11/16 00:21:20;;;;;;;11.90;8.80;;;;;;;3.40;85.53;99876.95;104212;1251;109666;-72
2023/11/16 00:23:48;;;;;;;12.00;8.70;;;;;;;3.38;85.52;99878.85;103081;1256;1002848;-73
2023/11/16 00:26:18;;;;;;;13.10;8.50;;;;;;;3.34;85.65;99880.27;103591;1254;138384;-72
2023/11/16 00:28:54;;;;;;;13.30;9.40;;;;;;;3.30;85.67;99881.85;103229;1256;1002671;-72
2023/11/16 00:31:23;;;;;;;12.50;8.70;;;;;;;3.26;85.80;99882.24;104487;1254;138118;-72
2023/11/16 00:33:50;;;;;;;14.50;9.30;;;;;;;3.25;86.07;99881.21;103490;1254;107262;-70
2023/11/16 00:36:18;;;;;;;11.10;8.20;;;;;;;3.24;86.34;99882.94;103369;1253;96318;-73
2023/11/16 00:38:45;;;;;;;13.60;9.40;;;;;;;3.22;86.15;99884.48;103286;1257;137479;-72
2023/11/16 00:41:15;;;;;;;15.00;10.40;;;;;;;3.19;86.56;99885.54;103357;1254;108417;-71
2023/11/16 00:43:43;;;;;;;15.30;10.60;;;;;;;3.16;86.55;99890.04;104314;1256;138282;-72
2023/11/16 00:46:11;;;;;;;14.70;10.80;;;;;;;3.13;86.66;99890.58;102993;1253;1002391;-72
2023/11/16 00:48:39;;;;;;;14.00;10.70;;;;;;;3.08;86.91;99889.77;103807;1254;137762;-72
2023/11/16 00:51:08;;;;;;;15.80;10.70;;;;;;;3.03;86.71;99889.77;103338;1254;110063;-71
2023/11/16 00:53:42;;;;;;;13.70;10.20;;;;;;;2.99;87.03;99892.21;103444;1257;107551;-72
2023/11/16 00:56:10;;;;;;;14.90;10.30;;;;;;;2.93;87.24;99893.30;103291;1254;138030;-72
2023/11/16 00:58:38;;;;;;;16.20;10.60;;;;;;;2.88;87.43;99893.85;103359;1257;106535;-72
2023/11/16 01:01:05;;;;;;;14.70;10.40;;;;;;;2.86;87.51;99891.27;103206;1257;138644;-72
2023/11/16 01:03:32;;;;;;;16.60;10.90;;;;;;;2.81;87.78;99889.77;104523;1256;108888;-72
2023/11/16 01:06:00;;;;;;;14.70;11.10;;;;;;;2.85;87.98;99898.15;102583;1256;1002895;-73
2023/11/16 01:08:33;;;;;;;16.70;11.90;;;;;;;2.84;87.70;99903.14;103335;1254;138214;-74
2023/11/16 01:11:02;;;;;;;19.70;11.70;;;;;;;2.83;87.96;99904.35;103642;1253;108153;-73
2023/11/16 01:13:38;;;;;;;16.60;12.10;;;;;;;2.83;88.07;99904.69;103712;1254;1015177;-72
2023/11/16 01:16:12;;;;;;;18.50;11.80;;;;;;;2.79;88.04;99904.71;103300;1256;109753;-73
2023/11/16 01:18:46;;;;;;;15.40;11.10;;;;;;;2.78;88.18;99905.94;103029;1254;1002607;-73
2023/11/16 01:21:13;;;;;;;16.10;11.00;;;;;;;2.76;88.23;99906.29;103419;1252;96971;-72
2023/11/16 01:23:41;;;;;;;16.00;10.90;;;;;;;2.73;88.20;99909.74;103346;1258;107732;-73
2023/11/16 01:26:14;;;;;;;26.10;10.20;;;;;;;2.72;88.14;99910.27;103263;1257;139159;-73
2023/11/16 01:28:45;;;;;;;16.90;10.80;;;;;;;2.70;88.38;99918.00;102647;1255;1002847;-72
2023/11/16 01:31:15;;;;;;;18.90;11.00;;;;;;;2.73;88.51;99922.62;102439;1255;1003071;-74
2023/11/16 01:33:43;;;;;;;14.00;10.70;;;;;;;2.73;88.38;99927.60;103817;1255;96336;-74
2023/11/16 01:36:11;;;;;;;17.80;12.10;;;;;;;2.72;88.42;99930.17;104207;1254;107411;-74
2023/11/16 01:38:38;;;;;;;19.70;12.10;;;;;;;2.72;88.38;99932.23;104148;1256;138107;-73
2023/11/16 01:41:07;;;;;;;17.10;11.90;;;;;;;2.67;88.33;99929.67;103314;1256;109575;-73
2023/11/16 01:43:34;;;;;;;16.90;11.30;;;;;;;2.63;88.40;99933.81;103330;1254;138881;-73
2023/11/16 01:46:05;;;;;;;14.80;10.50;;;;;;;2.60;88.38;99934.88;103275;1254;96475;-73
2023/11/16 01:48:34;;;;;;;16.90;10.50;;;;;;;2.57;88.34;99936.95;102720;1254;1002839;-74
2023/11/16 01:51:05;;;;;;;17.40;11.00;;;;;;;2.56;88.51;99940.23;103492;1255;96546;-74
2023/11/16 01:53:34;;;;;;;15.80;10.80;;;;;;;2.55;88.55;99944.52;103563;1254;109173;-73
2023/11/16 01:56:01;;;;;;;14.00;10.70;;;;;;;2.55;88.69;99948.29;103648;1254;138058;-74
2023/11/16 01:58:28;;;;;;;15.60;11.10;;;;;;;2.59;88.82;99949.63;103510;1255;96447;-74
2023/11/16 02:00:56;;;;;;;15.20;11.00;;;;;;;2.63;88.90;99947.20;103328;1256;137248;-74
2023/11/16 02:03:24;;;;;;;19.10;11.80;;;;;;;2.62;88.64;99946.53;102673;1254;1003243;-74
2023/11/16 02:05:51;;;;;;;15.90;11.20;;;;;;;2.57;88.56;99945.70;102741;1254;1003330;-74
2023/11/16 02:08:18;;;;;;;17.10;12.10;;;;;;;2.55;88.63;99948.63;102543;1254;1002959;-73
2023/11/16 02:10:45;;;;;;;15.80;11.50;;;;;;;2.52;88.59;99953.10;103412;1254;96457;-73
2023/11/16 02:13:20;;;;;;;16.90;11.70;;;;;;;2.50;88.90;99954.81;103405;1257;138379;-72
2023/11/16 02:15:48;;;;;;;15.80;11.20;;;;;;;2.49;89.02;99957.39;103447;1257;96474;-73
2023/11/16 02:18:16;;;;;;;15.90;11.80;;;;;;;2.48;89.15;99954.81;103519;1254;110768;-72
2023/11/16 02:20:46;;;;;;;17.60;11.80;;;;;;;2.53;89.28;99959.45;103297;1254;138141;-73
2023/11/16 02:23:14;;;;;;;19.50;12.30;;;;;;;2.56;89.28;99963.73;104159;1253;96951;-75
2023/11/16 02:25:49;;;;;;;18.50;11.90;;;;;;;2.59;89.24;99966.28;103297;1257;137615;-75
2023/11/16 02:28:17;;;;;;;16.90;11.60;;;;;;;2.64;89.31;99972.43;103602;1254;96561;-75
2023/11/16 02:30:45;;;;;;;17.90;12.30;;;;;;;2.70;89.30;99973.62;102592;1253;1002933;-74
2023/11/16 02:33:13;;;;;;;20.60;13.50;;;;;;;2.75;89.31;99981.49;103540;1254;106949;-75
2023/11/16 02:35:41;;;;;;;18.10;12.70;;;;;;;2.79;89.11;99977.02;103523;1256;96320;-75
2023/11/16 02:38:10;;;;;;;17.10;11.80;;;;;;;2.78;89.17;99977.02;103644;1254;137934;-75
2023/11/16 02:40:39;;;;;;;17.00;11.00;;;;;;;2.81;89.00;99979.73;102676;1254;1002681;-76
2023/11/16 02:43:06;;;;;;;17.20;11.20;;;;;;;2.84;89.29;99978.34;103517;1253;138972;-75
2023/11/16 02:45:34;;;;;;;15.80;11.30;;;;;;;2.89;89.37;99976.27;103447;1254;108182;-76
2023/11/16 02:48:02;;;;;;;16.60;11.40;;;;;;;2.95;89.07;99981.90;103475;1256;96353;-75
2023/11/16 02:50:30;;;;;;;16.80;11.10;;;;;;;2.98;88.84;99980.16;103346;1257;138957;-76
2023/11/16 02:52:57;;;;;;;17.70;11.60;;;;;;;2.99;88.79;99984.27;103533;1254;96358;-76
2023/11/16 02:55:25;;;;;;;15.90;10.90;;;;;;;3.01;88.86;99988.38;103384;1254;138560;-75
2023/11/16 02:57:55;;;;;;;18.30;12.60;;;;;;;3.00;88.58;99990.45;103432;1254;107816;-76
2023/11/16 03:00:22;;;;;;;16.70;12.20;;;;;;;3.01;88.72;99990.79;102822;1255;1003638;-75
2023/11/16 03:02:50;;;;;;;20.10;13.70;;;;;;;3.03;88.57;100002.11;103405;1255;138289;-75
2023/11/16 03:05:21;;;;;;;16.90;12.60;;;;;;;3.03;88.44;100006.92;103452;1257;96449;-76
2023/11/16 03:07:50;;;;;;;16.20;11.90;;;;;;;3.01;88.45;100007.79;103437;1257;138086;-76
2023/11/16 03:10:17;;;;;;;15.40;11.40;;;;;;;3.02;88.44;100011.39;103486;1254;108575;-77
2023/11/16 03:12:45;;;;;;;17.90;11.60;;;;;;;3.06;88.47;100012.25;103419;1254;138726;-76
2023/11/16 03:15:13;;;;;;;16.20;11.40;;;;;;;3.08;88.55;100014.13;103496;1256;107371;-78
2023/11/16 03:17:43;;;;;;;16.70;11.70;;;;;;;3.11;88.47;100015.48;102733;1254;1016403;-77
2023/11/16 03:20:14;;;;;;;18.90;11.60;;;;;;;3.15;88.57;100021.30;103565;1256;138555;-76
2023/11/16 03:22:41;;;;;;;17.50;13.10;;;;;;;3.24;88.38;100026.23;102976;1258;1003072;-77
2023/11/16 03:25:09;;;;;;;18.80;13.00;;;;;;;3.28;88.37;100025.70;103403;1251;139504;-76
2023/11/16 03:27:36;;;;;;;19.90;13.90;;;;;;;3.33;88.31;100027.37;104649;1254;108262;-76
2023/11/16 03:30:04;;;;;;;20.80;14.40;;;;;;;3.36;88.22;100022.02;104296;1256;95073;-76
2023/11/16 03:32:32;;;;;;;18.40;12.90;;;;;;;3.37;88.23;100023.39;103435;1254;138362;-77
2023/11/16 03:34:59;;;;;;;16.30;12.00;;;;;;;3.37;87.81;100025.27;103878;1254;107466;-76
2023/11/16 03:37:26;;;;;;;20.30;13.50;;;;;;;3.37;87.73;100027.51;102645;1253;1003282;-76
2023/11/16 03:39:53;;;;;;;16.90;12.50;;;;;;;3.33;87.53;100028.92;103457;1252;108422;-75
2023/11/16 03:42:21;;;;;;;17.70;12.80;;;;;;;3.33;87.65;100032.52;103757;1254;96446;-76
2023/11/16 03:44:49;;;;;;;18.60;13.20;;;;;;;3.37;87.62;100029.23;103553;1256;137812;-77
2023/11/16 03:47:16;;;;;;;21.00;14.00;;;;;;;3.43;87.88;100026.61;103750;1254;106998;-77
2023/11/16 03:49:44;;;;;;;22.10;14.90;;;;;;;3.51;87.71;100032.92;104052;1254;138824;-77
2023/11/16 03:52:11;;;;;;;21.50;15.00;;;;;;;3.55;87.61;100036.33;104580;1253;108658;-78
2023/11/16 03:54:38;;;;;;;20.20;15.20;;;;;;;3.55;87.20;100037.88;102611;1256;1003741;-67
2023/11/16 03:57:08;;;;;;;22.00;15.40;;;;;;;3.54;87.27;100042.35;102748;1254;1002973;-77
2023/11/16 03:59:35;;;;;;;20.10;13.90;;;;;;;3.53;87.16;100043.55;104542;1253;107847;-77
2023/11/16 04:02:04;;;;;;;21.90;14.10;;;;;;;3.54;87.06;100043.20;103934;1252;138852;-79
2023/11/16 04:04:31;;;;;;;23.80;14.70;;;;;;;3.54;86.84;100043.04;103725;1253;108722;-78
2023/11/16 04:06:59;;;;;;;23.00;14.10;;;;;;;3.53;86.86;100041.33;102842;1254;1003801;-77
2023/11/16 04:09:26;;;;;;;24.50;14.80;;;;;;;3.52;86.69;100041.16;103546;1253;109788;-77
2023/11/16 04:11:53;;;;;;;27.50;15.00;;;;;;;3.54;86.52;100040.80;102730;1254;1002803;-77
2023/11/16 04:14:20;;;;;;;20.60;15.00;;;;;;;3.51;86.43;100039.97;103553;1253;1003033;-78
2023/11/16 04:16:52;;;;;;;30.30;14.90;;;;;;;3.50;86.12;100045.48;103488;1256;107446;-77
2023/11/16 04:19:21;;;;;;;30.80;15.90;;;;;;;3.44;86.15;100045.36;103924;1253;137460;-78
2023/11/16 04:21:50;;;;;;;26.50;15.70;;;;;;;3.41;86.02;100039.70;103640;1254;1002959;-79
2023/11/16 04:24:18;;;;;;;22.50;15.10;;;;;;;3.33;86.16;100040.94;104078;1254;107673;-78
2023/11/16 04:26:48;;;;;;;23.70;14.70;;;;;;;3.27;86.04;100048.55;103587;1253;138169;-78
2023/11/16 04:29:16;;;;;;;21.20;14.40;;;;;;;3.22;86.11;100052.00;103060;1256;1002935;-78
2023/11/16 04:31:45;;;;;;;19.10;13.40;;;;;;;3.19;86.33;100054.94;103570;1256;138739;-79
2023/11/16 04:34:12;;;;;;;22.40;15.20;;;;;;;3.16;86.32;100058.39;103729;1254;111262;-79
2023/11/16 04:36:41;;;;;;;22.10;14.50;;;;;;;3.15;86.46;100054.11;103413;1253;138505;-78
2023/11/16 04:39:11;;;;;;;21.70;14.40;;;;;;;3.13;86.34;100052.58;103495;1254;1003171;-80
2023/11/16 04:41:42;;;;;;;19.40;14.20;;;;;;;3.13;86.65;100051.02;104027;1254;108072;-81
2023/11/16 04:44:09;;;;;;;24.20;14.60;;;;;;;3.15;86.69;100047.92;102959;1255;1003047;-80
2023/11/16 04:46:36;;;;;;;27.00;15.90;;;;;;;3.14;86.71;100052.39;103984;1253;109906;-80
2023/11/16 04:49:04;;;;;;;28.90;15.50;;;;;;;3.15;86.90;100053.93;103670;1254;137665;-80
2023/11/16 04:51:32;;;;;;;23.40;15.30;;;;;;;3.10;86.75;100054.49;103376;1255;1003258;-79
2023/11/16 04:53:59;;;;;;;23.10;13.90;;;;;;;3.03;86.61;100053.98;102727;1253;1003356;-78
2023/11/16 04:56:26;;;;;;;26.10;15.10;;;;;;;3.03;86.93;100056.91;103653;1253;138321;-79
2023/11/16 04:58:53;;;;;;;25.30;15.30;;;;;;;3.03;87.24;100056.73;103517;1256;112371;-80
2023/11/16 05:01:22;;;;;;;27.30;15.10;;;;;;;3.04;87.05;100054.50;102279;1251;1003798;-79
2023/11/16 05:03:50;;;;;;;27.10;15.50;;;;;;;3.06;87.01;100058.28;104793;1253;94643;-80
2023/11/16 05:06:17;;;;;;;23.30;15.50;;;;;;;3.05;86.82;100056.39;103680;1253;107013;-79
2023/11/16 05:08:44;;;;;;;30.10;16.00;;;;;;;3.04;87.04;100056.21;103507;1254;138732;-78
2023/11/16 05:11:11;;;;;;;55.70;18.20;;;;;;;2.99;86.79;100061.21;103719;1254;108649;-80
2023/11/16 05:13:38;;;;;;;37.10;16.80;;;;;;;2.96;86.88;100060.20;102777;1252;1002965;-79
2023/11/16 05:16:08;;;;;;;31.80;15.20;;;;;;;2.90;87.07;100063.33;104322;1253;96431;-79
2023/11/16 05:18:36;;;;;;;22.80;14.00;;;;;;;2.86;87.14;100064.20;103736;1253;1003104;-79
2023/11/16 05:21:04;;;;;;;42.20;13.90;;;;;;;2.83;87.36;100066.77;104236;1253;96439;-79
2023/11/16 05:23:31;;;;;;;38.80;13.30;;;;;;;2.78;87.35;100063.54;103811;1253;109156;-79
2023/11/16 05:25:59;;;;;;;51.60;14.30;;;;;;;2.84;87.46;100077.77;104451;1252;138633;-81
2023/11/16 05:28:26;;;;;;;45.70;13.00;;;;;;;2.84;87.52;100083.25;104138;1255;96444;-79
2023/11/16 05:30:53;;;;;;;37.70;14.60;;;;;;;2.89;87.46;100087.04;103635;1252;138403;-79
2023/11/16 05:33:22;;;;;;;63.00;15.00;;;;;;;2.89;87.40;100090.47;103614;1256;96433;-79
2023/11/16 05:35:51;;;;;;;117.60;15.00;;;;;;;2.89;87.54;100089.61;104627;1253;109307;-81
2023/11/16 05:38:22;;;;;;;45.30;12.30;;;;;;;2.82;87.10;100083.45;103002;1252;1003957;-80
2023/11/16 05:40:52;;;;;;;39.30;12.00;;;;;;;2.77;87.14;100080.89;103930;1254;97222;-82
2023/11/16 05:43:19;;;;;;;21.20;11.10;;;;;;;2.74;87.15;100081.59;104094;1253;138185;-80
2023/11/16 05:45:47;;;;;;;26.50;10.70;;;;;;;2.74;87.20;100084.51;103875;1255;96476;-81
2023/11/16 05:48:15;;;;;;;52.40;12.90;;;;;;;2.75;87.09;100085.02;104768;1253;110464;-80
2023/11/16 05:50:43;;;;;;;72.10;13.10;;;;;;;2.76;87.22;100089.82;103572;1253;137771;-81
2023/11/16 05:53:11;;;;;;;87.10;13.10;;;;;;;2.76;87.35;100093.08;103012;1256;1002995;-82
2023/11/16 05:55:38;;;;;;;42.30;12.80;;;;;;;2.73;87.29;100087.61;103438;1255;138021;-81
2023/11/16 05:58:06;;;;;;;59.60;13.50;;;;;;;2.73;87.01;100093.95;103819;1253;96336;-83
2023/11/16 06:00:36;;;;;;;37.80;11.20;;;;;;;2.69;86.96;100098.25;103792;1253;108988;-80
2023/11/16 06:03:05;;;;;;;30.80;10.60;;;;;;;2.65;86.89;100099.29;104433;1253;107200;-78
2023/11/16 06:05:35;;;;;;;25.30;10.90;;;;;;;2.63;86.96;100099.98;103705;1253;96468;-77
2023/11/16 06:08:02;;;;;;;27.90;10.80;;;;;;;2.65;87.18;100103.40;103357;1256;138398;-77
2023/11/16 06:10:29;;;;;;;35.20;9.60;;;;;;;2.72;87.07;100103.23;103538;1252;96456;-74
2023/11/16 06:12:57;;;;;;;37.20;10.10;;;;;;;2.70;86.70;100105.29;103902;1252;137806;-75
2023/11/16 06:15:26;;;;;;;40.00;10.90;;;;;;;2.67;86.54;100110.09;103476;1253;1014818;-76
2023/11/16 06:17:54;;;;;;;41.30;10.60;;;;;;;2.64;86.70;100108.21;103548;1253;96478;-73
2023/11/16 06:20:22;;;;;;;32.90;11.70;;;;;;;2.63;86.67;100109.93;103601;1252;139448;-73
2023/11/16 06:22:50;;;;;;;54.50;12.70;;;;;;;2.64;86.61;100111.98;103604;1256;97690;-76
2023/11/16 06:25:18;;;;;;;32.30;11.50;;;;;;;2.59;86.55;100109.27;103416;1253;1003285;-74
2023/11/16 06:27:45;;;;;;;40.70;12.30;;;;;;;2.57;86.79;100108.23;103919;1256;107032;-76
2023/11/16 06:30:14;;;;;;;39.70;11.30;;;;;;;2.54;86.70;100111.16;102765;1253;1002594;-71
2023/11/16 06:32:42;;;;;;;28.80;11.70;;;;;;;2.50;86.52;100104.45;103412;1253;139618;-72
2023/11/16 06:35:11;;;;;;;81.30;12.30;;;;;;;2.51;86.74;100103.44;103682;1254;96453;-73
2023/11/16 06:37:38;;;;;;;56.30;14.10;;;;;;;2.54;86.76;100106.70;102999;1252;1002541;-73
2023/11/16 06:40:08;;;;;;;199.70;15.00;;;;;;;2.52;86.69;100109.79;103898;1254;107213;-75
2023/11/16 06:42:36;;;;;;;261.30;15.80;;;;;;;2.44;86.27;100112.20;104035;1253;1003425;-74
2023/11/16 06:45:04;;;;;;;74.00;14.40;;;;;;;2.28;86.08;100121.65;103853;1253;109045;-75
2023/11/16 06:47:32;;;;;;;73.70;15.10;;;;;;;2.20;86.77;100119.77;103069;1253;1002543;-75
2023/11/16 06:49:59;;;;;;;90.00;14.20;;;;;;;2.19;87.32;100115.67;104044;1252;139168;-73
2023/11/16 06:52:27;;;;;;;37.90;13.90;;;;;;;2.20;87.47;100111.55;103993;1252;109266;-78
2023/11/16 06:54:56;;;;;;;79.70;13.40;;;;;;;2.21;87.75;100111.70;103529;1256;139146;-75
2023/11/16 06:57:26;;;;;;;39.10;14.70;;;;;;;2.25;87.82;100117.37;103547;1256;108272;-73
2023/11/16 06:59:54;;;;;;;167.60;15.90;;;;;;;2.37;88.59;100117.19;103515;1256;96552;-74
2023/11/16 07:02:22;;;;;;;143.80;16.60;;;;;;;2.45;88.16;100120.77;103878;1256;138168;-73
2023/11/16 07:04:49;;;;;;;62.30;16.80;;;;;;;2.43;87.80;100120.78;103368;1253;107531;-74
2023/11/16 07:07:17;;;;;;;52.60;17.20;;;;;;;2.46;87.90;100117.34;103329;1253;137730;-73
2023/11/16 07:09:49;;;;;;;60.50;16.40;;;;;;;2.44;87.94;100118.55;103386;1253;108217;-73
2023/11/16 07:12:20;;;;;;;51.50;15.60;;;;;;;2.46;88.10;100124.20;103184;1253;1003703;-71
2023/11/16 07:14:51;;;;;;;25.70;14.80;;;;;;;2.47;87.89;100120.43;103666;1253;138307;-74
2023/11/16 07:17:20;;;;;;;50.60;15.20;;;;;;;2.46;88.03;100118.20;103552;1257;107025;-72
2023/11/16 07:19:48;;;;;;;29.30;14.90;;;;;;;2.52;88.12;100120.27;103678;1253;138311;-72
2023/11/16 07:22:17;;;;;;;72.00;16.20;;;;;;;2.58;88.33;100123.52;104640;1256;107822;-70
2023/11/16 07:24:47;;;;;;;62.80;16.80;;;;;;;2.57;88.01;100126.26;103401;1253;137811;-71
2023/11/16 07:27:14;;;;;;;70.50;18.10;;;;;;;2.57;87.81;100124.36;103672;1253;110926;-71
2023/11/16 07:29:42;;;;;;;147.10;18.30;;;;;;;2.57;87.54;100126.60;103635;1256;107522;-73
2023/11/16 07:32:11;;;;;;;263.30;18.90;;;;;;;2.57;87.63;100126.09;104191;1253;137657;-72
2023/11/16 07:34:42;;;;;;;103.40;16.60;;;;;;;2.50;87.31;100134.33;102559;1253;1002928;-71
2023/11/16 07:37:11;;;;;;;82.20;15.60;;;;;;;2.44;87.32;100138.97;104047;1253;139031;-72
2023/11/16 07:39:38;;;;;;;73.10;15.40;;;;;;;2.37;87.33;100133.50;103437;1253;109468;-71
2023/11/16 07:42:07;;;;;;;91.50;14.20;;;;;;;2.33;87.50;100135.54;103275;1253;108239;-72
2023/11/16 07:44:34;;;;;;;132.60;14.60;;;;;;;2.35;87.65;100137.10;103882;1253;139769;-72
2023/11/16 07:47:01;;;;;;;165.80;15.40;;;;;;;2.33;87.53;100139.66;102514;1253;1003747;-71
2023/11/16 07:49:32;;;;;;;170.30;17.70;;;;;;;2.31;87.71;100132.97;103287;1256;137994;-71
2023/11/16 07:51:59;;;;;;;207.10;18.20;;;;;;;2.32;87.86;100134.85;103430;1253;110568;-71
2023/11/16 07:54:26;;;;;;;210.20;18.20;;;;;;;2.30;87.66;100132.96;104038;1253;106986;-72
2023/11/16 07:57:01;;;;;;;69.30;17.40;;;;;;;2.26;88.05;100136.06;103531;1253;1002363;-72
2023/11/16 07:59:32;;;;;;;40.00;16.60;;;;;;;2.31;88.53;100136.23;103547;1253;1003098;-71
2023/11/16 08:02:00;;;;;;;61.30;16.00;;;;;;;2.38;88.68;100134.70;103901;1252;1139672;-73
2023/11/16 08:04:29;;;;;;;57.70;16.00;;;;;;;2.39;88.57;100137.09;104591;1253;110179;-72
2023/11/16 08:06:59;;;;;;;58.80;15.60;;;;;;;2.39;88.24;100136.58;104626;1252;138363;-72
2023/11/16 08:09:27;;;;;;;107.10;16.40;;;;;;;2.40;88.27;100131.09;103963;1253;97103;-73
2023/11/16 08:11:56;;;;;;;142.70;17.80;;;;;;;2.44;88.45;100128.67;104304;1253;107911;-73
2023/11/16 08:14:25;;;;;;;193.00;19.20;;;;;;;2.48;88.52;100133.30;103514;1256;137951;-72
2023/11/16 08:16:55;;;;;;;218.10;21.60;;;;;;;2.47;88.17;100138.96;104104;1253;109000;-70
2023/11/16 08:19:23;;;;;;;326.80;23.10;;;;;;;2.41;88.11;100140.35;103494;1253;138223;-72
2023/11/16 08:21:51;;;;;;;132.40;19.40;;;;;;;2.37;88.31;100142.77;103449;1253;96456;-72
2023/11/16 08:24:18;;;;;;;41.90;19.30;;;;;;;2.37;88.62;100140.88;103930;1256;107854;-72
2023/11/16 08:26:46;;;;;;;37.40;19.10;;;;;;;2.40;89.21;100141.73;103591;1252;140606;-72
2023/11/16 08:29:13;;;;;;;62.20;19.50;;;;;;;2.49;89.57;100139.66;104229;1256;110523;-73
2023/11/16 08:31:40;;;;;;;56.60;19.70;;;;;;;2.57;89.73;100141.20;103096;1257;138718;-72
2023/11/16 08:34:08;;;;;;;97.30;20.70;;;;;;;2.60;89.14;100139.81;103407;1256;96558;-72
2023/11/16 08:36:36;;;;;;;181.70;21.80;;;;;;;2.57;88.89;100144.45;104662;1253;107694;-72
2023/11/16 08:39:05;;;;;;;169.40;22.00;;;;;;;2.53;88.65;100140.86;104375;1253;94944;-72
2023/11/16 08:41:33;;;;;;;198.60;24.30;;;;;;;2.48;88.62;100143.94;104481;1254;109097;-72
2023/11/16 08:44:01;;;;;;;66.50;21.40;;;;;;;2.42;88.86;100145.15;102497;1253;1003074;-72
2023/11/16 08:46:32;;;;;;;56.90;21.10;;;;;;;2.46;89.39;100146.00;103567;1254;96548;-72
2023/11/16 08:49:01;;;;;;;52.40;20.60;;;;;;;2.49;89.67;100147.88;103884;1253;138254;-73
2023/11/16 08:51:28;;;;;;;52.30;20.10;;;;;;;2.52;89.55;100150.63;103422;1253;96566;-72
2023/11/16 08:53:56;;;;;;;83.40;19.60;;;;;;;2.50;89.30;100148.56;103327;1255;110389;-72
2023/11/16 08:56:26;;;;;;;93.10;21.50;;;;;;;2.48;89.27;100152.01;102501;1256;1003691;-72
2023/11/16 08:59:08;;;;;;;156.80;21.80;;;;;;;2.47;89.35;100153.89;103846;1253;96488;-74
2023/11/16 09:01:37;;;;;;;183.80;24.20;;;;;;;2.48;89.43;100150.63;103344;1256;137465;-71
2023/11/16 09:04:08;;;;;;;48.80;23.00;;;;;;;2.49;89.67;100149.93;103594;1254;96391;-72
2023/11/16 09:06:36;;;;;;;54.20;21.10;;;;;;;2.48;90.08;100146.85;104618;1252;109328;-73
2023/11/16 09:09:09;;;;;;;62.20;19.00;;;;;;;2.46;90.00;100144.11;103303;1253;109324;-71
2023/11/16 09:11:37;;;;;;;56.50;17.00;;;;;;;2.43;89.65;100146.70;103624;1256;96603;-72
2023/11/16 09:14:04;;;;;;;40.10;18.30;;;;;;;2.37;89.56;100145.17;102949;1253;1002745;-72
2023/11/16 09:16:31;;;;;;;82.50;17.20;;;;;;;2.37;89.68;100142.59;103189;1253;1002959;-78
2023/11/16 09:18:59;;;;;;;114.60;18.90;;;;;;;2.38;89.61;100142.08;104094;1252;138647;-77
2023/11/16 09:21:29;;;;;;;157.80;18.70;;;;;;;2.40;89.79;100137.77;104193;1253;108161;-79
2023/11/16 09:23:56;;;;;;;213.80;21.30;;;;;;;2.38;89.53;100130.05;104045;1253;96463;-78
2023/11/16 09:26:24;;;;;;;204.90;22.50;;;;;;;2.37;89.70;100132.64;102774;1252;1002954;-77
2023/11/16 09:28:52;;;;;;;125.30;21.70;;;;;;;2.32;89.60;100130.91;103577;1256;96993;-79
2023/11/16 09:31:33;;;;;;;67.50;19.40;;;;;;;2.27;90.12;100134.86;103307;1253;138982;-78
2023/11/16 09:34:01;;;;;;;52.50;18.60;;;;;;;2.23;90.24;100132.13;103554;1253;108429;-78
2023/11/16 09:36:28;;;;;;;45.30;18.90;;;;;;;2.21;90.99;100134.86;103755;1253;98361;-80
2023/11/16 09:38:56;;;;;;;57.40;19.30;;;;;;;2.23;91.18;100141.21;103924;1253;138056;-79
2023/11/16 09:41:28;;;;;;;49.50;19.50;;;;;;;2.28;91.46;100140.17;103859;1253;96495;-79
2023/11/16 09:44:02;;;;;;;58.60;17.80;;;;;;;2.37;91.75;100137.78;103796;1253;138146;-78
2023/11/16 09:46:31;;;;;;;106.40;17.60;;;;;;;2.43;91.61;100131.77;103841;1256;106629;-79
2023/11/16 09:48:59;;;;;;;67.10;17.40;;;;;;;2.46;91.50;100129.87;103268;1253;1002746;-79
2023/11/16 09:51:30;;;;;;;40.40;17.10;;;;;;;2.54;91.68;100127.64;103775;1253;107765;-79
2023/11/16 09:53:59;;;;;;;111.90;18.40;;;;;;;2.56;91.29;100120.95;103947;1253;1003172;-79
2023/11/16 09:56:30;;;;;;;75.80;17.30;;;;;;;2.58;90.96;100117.50;104294;1253;138073;-79
2023/11/16 09:59:14;;;;;;;61.90;16.30;;;;;;;2.59;90.88;100120.75;103821;1256;107787;-80
2023/11/16 10:01:46;;;;;;;46.40;16.40;;;;;;;2.58;90.57;100123.85;103368;1256;139372;-77
2023/11/16 10:04:14;;;;;;;41.40;15.70;;;;;;;2.63;90.86;100121.44;103478;1253;108244;-78
2023/11/16 10:06:48;;;;;;;39.20;14.70;;;;;;;2.64;90.88;100124.86;103778;1256;96505;-78
2023/11/16 10:09:15;;;;;;;45.40;16.00;;;;;;;2.66;90.60;100121.59;102818;1253;1003079;-81
2023/11/16 10:11:42;;;;;;;151.80;18.10;;;;;;;2.68;90.69;100119.52;104327;1252;107621;-79
2023/11/16 10:14:09;;;;;;;152.90;18.60;;;;;;;2.66;90.60;100119.02;104154;1253;137888;-77
2023/11/16 10:16:36;;;;;;;111.00;18.20;;;;;;;2.66;90.63;100118.16;103519;1256;107602;-78
2023/11/16 10:19:06;;;;;;;58.90;14.50;;;;;;;2.61;90.49;100116.63;103879;1253;138499;-79
2023/11/16 10:21:34;;;;;;;70.90;14.90;;;;;;;2.56;90.32;100114.08;103814;1256;108918;-78
2023/11/16 10:24:09;;;;;;;36.70;14.90;;;;;;;2.53;90.40;100112.20;102686;1252;1002878;-78
2023/11/16 10:26:37;;;;;;;32.10;16.00;;;;;;;2.56;91.04;100104.81;104561;1253;139160;-75
2023/11/16 10:29:05;;;;;;;38.40;16.50;;;;;;;2.69;91.69;100109.57;103129;1252;1003248;-80
2023/11/16 10:31:34;;;;;;;32.80;16.80;;;;;;;2.84;91.93;100107.13;103727;1253;139992;-80
2023/11/16 10:34:04;;;;;;;62.40;16.60;;;;;;;2.97;91.79;100111.73;103543;1253;109464;-78
2023/11/16 10:36:32;;;;;;;55.80;17.70;;;;;;;3.00;91.10;100114.98;103464;1252;107226;-78
2023/11/16 10:39:01;;;;;;;63.20;18.50;;;;;;;3.00;91.04;100107.41;102572;1252;1002958;-77
2023/11/16 10:41:29;;;;;;;47.00;18.10;;;;;;;2.99;91.01;100105.02;104331;1256;107374;-78
2023/11/16 10:43:56;;;;;;;39.10;18.10;;;;;;;3.03;91.30;100103.96;102500;1253;1002961;-79
2023/11/16 10:46:28;;;;;;;25.80;14.10;;;;;;;3.06;91.58;100103.45;103363;1252;110677;-78
2023/11/16 10:48:55;;;;;;;60.80;15.00;;;;;;;3.00;90.43;100095.56;103471;1253;138992;-77
2023/11/16 10:51:24;;;;;;;60.30;14.60;;;;;;;2.95;90.49;100099.02;103428;1253;96448;-78
2023/11/16 10:53:55;;;;;;;41.00;16.20;;;;;;;2.90;90.48;100092.53;104721;1253;107131;-78
2023/11/16 10:56:22;;;;;;;57.70;16.10;;;;;;;2.89;90.90;100099.23;103604;1252;137565;-78
2023/11/16 10:58:51;;;;;;;43.30;15.70;;;;;;;2.84;90.82;100093.39;103412;1256;110487;-79
2023/11/16 11:01:19;;;;;;;39.70;14.80;;;;;;;2.82;91.07;100089.96;103251;1253;138857;-78
2023/11/16 11:03:47;;;;;;;35.30;15.30;;;;;;;2.84;91.19;100085.66;102642;1256;1015806;-78
2023/11/16 11:06:19;;;;;;;37.00;15.50;;;;;;;2.88;91.54;100084.12;102583;1253;1003026;-78
2023/11/16 11:08:48;;;;;;;22.00;12.80;;;;;;;2.91;91.51;100081.88;103273;1253;138458;-78